createdAt,value
2019-03-16T00:02:02.270Z,8.60
2019-03-16T00:04:29.551Z,8.73
2019-03-16T00:06:56.822Z,10.30
2019-03-16T00:09:24.142Z,7.70
2019-03-16T00:11:51.477Z,7.25
2019-03-16T00:14:19.173Z,14.98
2019-03-16T00:16:46.523Z,8.43
2019-03-16T00:19:13.807Z,13.13
2019-03-16T00:21:41.349Z,7.33
2019-03-16T00:24:08.612Z,12.53
2019-03-16T00:26:35.891Z,8.88
2019-03-16T00:29:03.157Z,9.68
2019-03-16T00:31:30.518Z,8.48
2019-03-16T00:33:57.850Z,14.78
2019-03-16T00:36:25.139Z,6.65
2019-03-16T00:38:52.444Z,8.55
2019-03-16T00:41:19.821Z,8.95
2019-03-16T00:43:47.082Z,7.30
2019-03-16T00:46:14.372Z,8.35
2019-03-16T00:48:41.639Z,8.78
2019-03-16T00:51:08.953Z,7.42
2019-03-16T00:53:36.406Z,5.78
2019-03-16T00:56:03.803Z,7.87
2019-03-16T00:58:31.109Z,6.53
2019-03-16T01:00:58.455Z,3.40
2019-03-16T01:03:25.759Z,3.90
2019-03-16T01:05:53.037Z,3.98
2019-03-16T01:08:20.294Z,5.35
2019-03-16T01:10:47.566Z,5.28
2019-03-16T01:13:14.986Z,4.75
2019-03-16T01:15:42.408Z,7.42
2019-03-16T01:18:09.901Z,3.22
2019-03-16T01:20:37.173Z,6.50
2019-03-16T01:23:04.436Z,6.55
2019-03-16T01:25:31.841Z,8.38
2019-03-16T01:27:59.101Z,4.33
2019-03-16T01:30:26.362Z,6.33
2019-03-16T01:32:53.639Z,5.37
2019-03-16T01:35:20.930Z,6.65
2019-03-16T01:37:48.187Z,11.03
2019-03-16T01:40:15.466Z,9.70
2019-03-16T01:42:42.743Z,6.33
2019-03-16T01:45:10.694Z,4.25
2019-03-16T01:47:38.020Z,8.20
2019-03-16T01:50:06.957Z,7.45
2019-03-16T01:52:34.379Z,5.95
2019-03-16T01:55:01.642Z,7.42
2019-03-16T01:57:29.673Z,6.30
2019-03-16T01:59:56.967Z,6.47
2019-03-16T02:02:24.251Z,5.83
2019-03-16T02:04:51.593Z,7.28
2019-03-16T02:07:18.868Z,8.03
2019-03-16T02:09:46.131Z,6.70
2019-03-16T02:12:13.436Z,10.43
2019-03-16T02:14:40.691Z,6.72
2019-03-16T02:17:08.088Z,7.85
2019-03-16T02:19:36.084Z,6.05
2019-03-16T02:22:03.603Z,4.78
2019-03-16T02:24:30.882Z,3.98
2019-03-16T02:26:58.157Z,4.83
2019-03-16T02:29:25.442Z,5.58
2019-03-16T02:31:52.708Z,5.15
2019-03-16T02:34:19.977Z,7.78
2019-03-16T02:36:48.856Z,5.50
2019-03-16T02:39:16.314Z,4.75
2019-03-16T02:41:43.578Z,4.37
2019-03-16T02:44:11.554Z,2.08
2019-03-16T02:46:39.110Z,3.17
2019-03-16T02:49:06.477Z,3.72
2019-03-16T02:51:33.808Z,4.47
2019-03-16T02:54:01.082Z,3.55
2019-03-16T02:56:28.342Z,4.33
2019-03-16T02:58:55.633Z,3.85
2019-03-16T03:01:22.914Z,3.60
2019-03-16T03:03:50.187Z,6.10
2019-03-16T03:06:17.535Z,4.00
2019-03-16T03:08:44.815Z,5.80
2019-03-16T03:11:12.095Z,6.35
2019-03-16T03:13:39.381Z,6.72
2019-03-16T03:16:06.661Z,6.75
2019-03-16T03:18:33.920Z,5.87
2019-03-16T03:21:01.221Z,8.95
2019-03-16T03:23:28.480Z,8.55
2019-03-16T03:25:55.759Z,10.20
2019-03-16T03:28:23.903Z,8.28
2019-03-16T03:30:51.171Z,8.35
2019-03-16T03:33:18.424Z,11.38
2019-03-16T03:35:45.709Z,7.00
2019-03-16T03:38:12.982Z,10.30
2019-03-16T03:40:40.251Z,9.05
2019-03-16T03:43:07.522Z,8.65
2019-03-16T03:45:34.778Z,10.05
2019-03-16T03:48:02.073Z,7.35
2019-03-16T03:50:29.336Z,9.08
2019-03-16T03:52:56.597Z,9.50
2019-03-16T03:55:23.887Z,8.10
2019-03-16T03:57:51.491Z,5.60
2019-03-16T04:00:18.858Z,7.05
2019-03-16T04:02:46.451Z,6.75
2019-03-16T04:05:13.898Z,5.40
2019-03-16T04:07:41.229Z,4.65
2019-03-16T04:10:09.355Z,3.55
2019-03-16T04:12:37.324Z,3.72
2019-03-16T04:15:05.571Z,7.17
2019-03-16T04:17:32.842Z,3.45
2019-03-16T04:20:00.434Z,7.72
2019-03-16T04:22:27.969Z,3.25
2019-03-16T04:24:55.225Z,4.28
2019-03-16T04:27:22.499Z,4.92
2019-03-16T04:29:49.811Z,9.30
2019-03-16T04:32:17.317Z,6.05
2019-03-16T04:34:45.230Z,5.87
2019-03-16T04:37:12.742Z,6.97
2019-03-16T04:39:40.014Z,5.53
2019-03-16T04:42:07.514Z,8.80
2019-03-16T04:44:34.830Z,5.28
2019-03-16T04:47:02.106Z,6.80
2019-03-16T04:49:29.361Z,4.17
2019-03-16T04:51:56.626Z,4.33
2019-03-16T04:54:23.908Z,3.33
2019-03-16T04:56:51.210Z,5.95
2019-03-16T04:59:18.491Z,11.22
2019-03-16T05:01:45.837Z,3.92
2019-03-16T05:04:13.162Z,8.83
2019-03-16T05:06:40.453Z,5.85
2019-03-16T05:09:07.717Z,6.35
2019-03-16T05:11:34.970Z,5.47
2019-03-16T05:14:02.263Z,5.37
2019-03-16T05:16:29.537Z,5.72
2019-03-16T05:18:56.813Z,4.58
2019-03-16T05:21:24.065Z,9.55
2019-03-16T05:23:51.420Z,4.53
2019-03-16T05:26:18.702Z,4.33
2019-03-16T05:28:45.982Z,7.42
2019-03-16T05:31:13.319Z,6.92
2019-03-16T05:33:40.585Z,9.35
2019-03-16T05:36:07.858Z,5.28
2019-03-16T05:38:35.137Z,3.72
2019-03-16T05:41:02.758Z,5.83
2019-03-16T05:43:30.035Z,5.28
2019-03-16T05:45:57.309Z,5.03
2019-03-16T05:48:24.622Z,7.62
2019-03-16T05:50:51.883Z,7.90
2019-03-16T05:53:19.139Z,4.65
2019-03-16T05:55:46.606Z,5.35
2019-03-16T05:58:13.886Z,4.42
2019-03-16T06:00:41.141Z,6.45
2019-03-16T06:03:08.445Z,3.60
2019-03-16T06:05:35.711Z,4.53
2019-03-16T06:08:02.984Z,4.10
2019-03-16T06:10:30.519Z,4.08
2019-03-16T06:12:57.951Z,4.33
2019-03-16T06:15:25.306Z,2.05
2019-03-16T06:17:52.582Z,4.40
2019-03-16T06:20:19.850Z,5.40
2019-03-16T06:22:47.119Z,6.60
2019-03-16T06:25:14.558Z,3.85
2019-03-16T06:27:42.176Z,5.17
2019-03-16T06:30:10.707Z,4.80
2019-03-16T06:32:37.971Z,5.58
2019-03-16T06:35:05.911Z,8.95
2019-03-16T06:37:33.177Z,8.85
2019-03-16T06:40:00.472Z,11.90
2019-03-16T06:42:27.793Z,18.35
2019-03-16T06:44:55.059Z,12.90
2019-03-16T06:47:23.270Z,12.50
2019-03-16T06:49:50.881Z,19.95
2019-03-16T06:52:18.196Z,16.48
2019-03-16T06:54:45.455Z,23.10
2019-03-16T06:57:12.809Z,18.95
2019-03-16T06:59:40.065Z,26.10
2019-03-16T07:02:07.343Z,20.02
2019-03-16T07:04:34.655Z,19.15
2019-03-16T07:07:16.331Z,23.73
2019-03-16T07:09:43.674Z,22.02
2019-03-16T07:12:11.004Z,16.52
2019-03-16T07:14:38.284Z,24.07
2019-03-16T07:17:05.530Z,16.75
2019-03-16T07:19:34.004Z,20.20
2019-03-16T07:22:01.597Z,15.95
2019-03-16T07:24:28.931Z,20.43
2019-03-16T07:26:56.298Z,19.77
2019-03-16T07:29:23.644Z,18.85
2019-03-16T07:31:50.914Z,20.23
2019-03-16T07:34:18.202Z,24.37
2019-03-16T07:36:45.494Z,20.17
2019-03-16T07:39:12.769Z,13.80
2019-03-16T07:41:40.048Z,20.50
2019-03-16T07:44:07.381Z,22.60
2019-03-16T07:46:34.664Z,19.40
2019-03-16T07:49:01.947Z,19.70
2019-03-16T07:51:29.203Z,28.07
2019-03-16T07:53:56.502Z,20.02
2019-03-16T07:56:23.766Z,18.62
2019-03-16T07:58:51.046Z,17.57
2019-03-16T08:01:18.323Z,20.12
2019-03-16T08:03:45.615Z,16.65
2019-03-16T08:06:12.879Z,13.72
2019-03-16T08:08:40.440Z,14.47
2019-03-16T08:11:07.732Z,17.52
2019-03-16T08:13:34.999Z,13.75
2019-03-16T08:16:02.308Z,13.15
2019-03-16T08:18:29.571Z,16.82
2019-03-16T08:20:56.846Z,13.60
2019-03-16T08:23:24.120Z,12.63
2019-03-16T08:25:51.417Z,8.90
2019-03-16T08:28:18.737Z,11.63
2019-03-16T08:30:46.016Z,10.50
2019-03-16T08:33:13.279Z,9.43
2019-03-16T08:35:40.580Z,11.28
2019-03-16T08:38:07.837Z,13.00
2019-03-16T08:40:35.102Z,16.25
2019-03-16T08:43:02.384Z,11.88
2019-03-16T08:45:29.645Z,15.98
2019-03-16T08:47:56.935Z,21.90
2019-03-16T08:50:24.213Z,22.52
2019-03-16T08:52:53.752Z,19.70
2019-03-16T08:55:20.489Z,16.15
2019-03-16T08:57:47.762Z,25.27
2019-03-16T09:00:15.027Z,27.75
2019-03-16T09:02:42.319Z,22.13
2019-03-16T09:05:09.665Z,19.87
2019-03-16T09:07:37.009Z,21.33
2019-03-16T09:10:05.151Z,17.20
2019-03-16T09:12:32.422Z,19.67
2019-03-16T09:14:59.702Z,22.22
2019-03-16T09:17:27.213Z,21.33
2019-03-16T09:19:54.497Z,23.85
2019-03-16T09:22:21.779Z,26.25
2019-03-16T09:24:49.189Z,21.97
2019-03-16T09:27:16.541Z,23.67
2019-03-16T09:29:43.837Z,17.25
2019-03-16T09:32:11.237Z,19.62
2019-03-16T09:34:38.513Z,16.23
2019-03-16T09:37:05.840Z,16.97
2019-03-16T09:39:33.126Z,18.10
2019-03-16T09:42:00.461Z,13.88
2019-03-16T09:44:27.761Z,16.20
2019-03-16T09:46:55.046Z,15.80
2019-03-16T09:49:22.298Z,16.48
2019-03-16T09:51:50.738Z,16.15
2019-03-16T09:54:18.053Z,18.30
2019-03-16T09:56:45.463Z,13.70
2019-03-16T09:59:12.881Z,14.80
2019-03-16T10:01:40.180Z,13.00
2019-03-16T10:04:07.576Z,15.35
2019-03-16T10:06:34.869Z,13.53
2019-03-16T10:09:02.129Z,14.65
2019-03-16T10:11:29.643Z,14.90
2019-03-16T10:13:56.922Z,15.32
2019-03-16T10:16:24.229Z,12.68
2019-03-16T10:18:51.466Z,16.93
2019-03-16T10:21:19.004Z,8.98
2019-03-16T10:23:46.422Z,11.35
2019-03-16T10:26:13.721Z,13.90
2019-03-16T10:28:43.894Z,14.93
2019-03-16T10:31:09.967Z,11.20
2019-03-16T10:33:38.145Z,12.75
2019-03-16T10:36:05.502Z,14.38
2019-03-16T10:38:32.805Z,12.68
2019-03-16T10:41:00.066Z,10.08
2019-03-16T10:43:27.352Z,10.88
2019-03-16T10:45:54.623Z,9.45
2019-03-16T10:48:21.895Z,12.05
2019-03-16T10:50:49.253Z,13.10
2019-03-16T10:53:16.707Z,7.60
2019-03-16T10:55:44.058Z,11.55
2019-03-16T10:58:11.334Z,10.40
2019-03-16T11:00:38.606Z,12.90
2019-03-16T11:03:05.904Z,12.53
2019-03-16T11:05:33.174Z,12.78
2019-03-16T11:08:00.463Z,9.78
2019-03-16T11:10:27.828Z,11.60
2019-03-16T11:12:55.117Z,9.60
2019-03-16T11:15:22.405Z,10.63
2019-03-16T11:17:49.667Z,11.78
2019-03-16T11:20:17.527Z,10.80
2019-03-16T11:22:44.789Z,6.55
2019-03-16T11:25:12.076Z,7.72
2019-03-16T11:27:39.324Z,7.65
2019-03-16T11:30:08.114Z,10.25
2019-03-16T11:32:35.400Z,8.30
2019-03-16T11:35:02.681Z,13.30
2019-03-16T11:37:30.081Z,10.15
2019-03-16T11:39:57.655Z,6.42
2019-03-16T11:42:26.171Z,5.60
2019-03-16T11:44:53.462Z,5.87
2019-03-16T11:47:20.758Z,5.80
2019-03-16T11:49:48.009Z,7.00
2019-03-16T11:52:15.347Z,5.50
2019-03-16T11:54:42.679Z,7.00
2019-03-16T11:57:09.968Z,4.53
2019-03-16T11:59:37.221Z,5.55
2019-03-16T12:02:05.523Z,7.15
2019-03-16T12:04:33.326Z,6.35
2019-03-16T12:07:00.714Z,9.35
2019-03-16T12:09:27.982Z,6.33
2019-03-16T12:11:55.454Z,5.35
2019-03-16T12:14:22.736Z,7.65
2019-03-16T12:16:50.414Z,6.00
2019-03-16T12:19:17.722Z,5.42
2019-03-16T12:21:44.989Z,5.25
2019-03-16T12:24:12.263Z,5.85
2019-03-16T12:26:39.523Z,8.08
2019-03-16T12:29:06.813Z,4.25
2019-03-16T12:31:34.063Z,9.25
2019-03-16T12:34:01.327Z,6.05
2019-03-16T12:36:28.581Z,8.63
2019-03-16T12:38:56.031Z,7.42
2019-03-16T12:41:23.305Z,5.42
2019-03-16T12:43:50.570Z,9.48
2019-03-16T12:46:17.848Z,5.87
2019-03-16T12:48:45.123Z,6.42
2019-03-16T12:51:12.482Z,6.08
2019-03-16T12:53:39.930Z,7.53
2019-03-16T12:56:07.214Z,9.20
2019-03-16T12:58:34.549Z,9.33
2019-03-16T13:01:01.857Z,7.40
2019-03-16T13:03:29.254Z,7.05
2019-03-16T13:05:56.846Z,7.35
2019-03-16T13:08:24.115Z,6.55
2019-03-16T13:10:51.477Z,6.75
2019-03-16T13:13:18.795Z,5.60
2019-03-16T13:15:46.066Z,7.12
2019-03-16T13:18:13.411Z,5.67
2019-03-16T13:20:40.684Z,7.12
2019-03-16T13:23:08.122Z,6.50
2019-03-16T13:25:35.398Z,3.87
2019-03-16T13:28:02.732Z,6.67
2019-03-16T13:30:30.054Z,6.42
2019-03-16T13:32:57.363Z,5.35
2019-03-16T13:35:24.629Z,8.48
2019-03-16T13:37:52.266Z,6.72
2019-03-16T13:40:19.600Z,5.30
2019-03-16T13:42:46.968Z,7.92
2019-03-16T13:45:14.416Z,5.35
2019-03-16T13:47:41.757Z,6.15
2019-03-16T13:50:10.606Z,8.10
2019-03-16T13:52:38.274Z,7.00
2019-03-16T13:55:06.514Z,9.33
2019-03-16T13:57:33.802Z,9.55
2019-03-16T14:00:11.282Z,8.85
2019-03-16T14:02:30.043Z,6.50
2019-03-16T14:04:57.315Z,5.40
2019-03-16T14:07:24.857Z,8.73
2019-03-16T14:09:52.228Z,10.45
2019-03-16T14:12:19.499Z,6.30
2019-03-16T14:14:47.231Z,6.50
2019-03-16T14:17:14.514Z,10.70
2019-03-16T14:19:41.855Z,8.35
2019-03-16T14:22:09.156Z,9.23
2019-03-16T14:24:36.538Z,9.35
2019-03-16T14:27:04.098Z,6.78
2019-03-16T14:29:31.428Z,5.53
2019-03-16T14:31:58.907Z,8.80
2019-03-16T14:34:26.183Z,11.55
2019-03-16T14:36:53.606Z,8.58
2019-03-16T14:39:21.072Z,8.00
2019-03-16T14:41:48.421Z,5.72
2019-03-16T14:44:15.674Z,9.58
2019-03-16T14:46:42.965Z,8.15
2019-03-16T14:49:10.350Z,10.82
2019-03-16T14:51:37.614Z,8.35
2019-03-16T14:54:04.878Z,10.60
2019-03-16T14:56:32.158Z,7.87
2019-03-16T14:58:59.451Z,11.20
2019-03-16T15:01:26.837Z,6.53
2019-03-16T15:03:54.300Z,8.43
2019-03-16T15:06:21.612Z,9.08
2019-03-16T15:08:48.949Z,6.40
2019-03-16T15:11:16.224Z,6.10
2019-03-16T15:13:43.482Z,6.47
2019-03-16T15:16:10.778Z,8.53
2019-03-16T15:18:38.175Z,7.28
2019-03-16T15:21:05.466Z,6.03
2019-03-16T15:23:32.747Z,7.67
2019-03-16T15:26:00.041Z,6.42
2019-03-16T15:28:27.440Z,6.08
2019-03-16T15:30:54.745Z,8.28
2019-03-16T15:33:21.994Z,7.78
2019-03-16T15:35:49.273Z,5.47
2019-03-16T15:38:16.547Z,8.15
2019-03-16T15:40:43.897Z,8.95
2019-03-16T15:43:11.170Z,10.32
2019-03-16T15:45:38.631Z,8.88
2019-03-16T15:48:06.088Z,8.65
2019-03-16T15:50:33.358Z,9.98
2019-03-16T15:53:00.650Z,10.25
2019-03-16T15:55:28.052Z,14.90
2019-03-16T15:58:07.362Z,6.95
2019-03-16T16:00:24.327Z,11.70
2019-03-16T16:02:51.606Z,8.98
2019-03-16T16:05:18.969Z,8.00
2019-03-16T16:07:46.243Z,10.28
2019-03-16T16:10:14.449Z,10.28
2019-03-16T16:12:42.032Z,11.63
2019-03-16T16:15:09.946Z,11.28
2019-03-16T16:17:37.198Z,9.00
2019-03-16T16:20:06.033Z,9.78
2019-03-16T16:22:33.373Z,13.50
2019-03-16T16:25:00.853Z,8.95
2019-03-16T16:27:28.137Z,15.00
2019-03-16T16:29:55.424Z,9.25
2019-03-16T16:32:22.699Z,15.63
2019-03-16T16:34:49.988Z,8.05
2019-03-16T16:37:17.245Z,8.58
2019-03-16T16:39:44.680Z,9.63
2019-03-16T16:42:11.984Z,10.88
2019-03-16T16:44:39.344Z,9.08
2019-03-16T16:47:06.724Z,9.05
2019-03-16T16:49:34.227Z,11.68
2019-03-16T16:52:01.564Z,10.70
2019-03-16T16:54:28.830Z,12.98
2019-03-16T16:56:56.109Z,10.65
2019-03-16T16:59:23.413Z,18.40
2019-03-16T17:01:50.715Z,13.00
2019-03-16T17:04:18.033Z,10.15
2019-03-16T17:06:45.477Z,10.40
2019-03-16T17:09:12.746Z,13.40
2019-03-16T17:11:40.070Z,13.48
2019-03-16T17:14:07.545Z,13.45
2019-03-16T17:16:34.819Z,8.00
2019-03-16T17:19:02.099Z,10.48
2019-03-16T17:21:29.381Z,11.38
2019-03-16T17:23:56.666Z,11.57
2019-03-16T17:26:24.013Z,12.43
2019-03-16T17:28:51.299Z,12.78
2019-03-16T17:31:18.595Z,11.50
2019-03-16T17:33:45.882Z,12.98
2019-03-16T17:36:13.139Z,10.88
2019-03-16T17:38:40.435Z,7.87
2019-03-16T17:41:08.331Z,11.28
2019-03-16T17:43:35.647Z,12.23
2019-03-16T17:46:02.915Z,11.75
2019-03-16T17:48:30.219Z,17.20
2019-03-16T17:50:57.684Z,10.00
2019-03-16T17:53:24.980Z,11.25
2019-03-16T17:55:52.280Z,12.15
2019-03-16T17:58:19.683Z,9.93
2019-03-16T18:00:46.969Z,9.78
2019-03-16T18:03:14.454Z,13.30
2019-03-16T18:05:42.020Z,11.80
2019-03-16T18:08:09.297Z,8.85
2019-03-16T18:10:36.615Z,10.20
2019-03-16T18:13:03.882Z,10.08
2019-03-16T18:15:31.235Z,8.05
2019-03-16T18:17:58.591Z,7.75
2019-03-16T18:20:25.847Z,12.90
2019-03-16T18:22:53.133Z,11.50
2019-03-16T18:25:20.781Z,14.43
2019-03-16T18:27:48.053Z,10.78
2019-03-16T18:30:20.102Z,11.90
2019-03-16T18:32:47.446Z,14.53
2019-03-16T18:35:14.787Z,10.25
2019-03-16T18:37:42.149Z,7.42
2019-03-16T18:40:10.649Z,9.70
2019-03-16T18:42:38.109Z,14.13
2019-03-16T18:45:10.116Z,12.00
2019-03-16T18:47:37.502Z,10.90
2019-03-16T18:50:06.008Z,12.10
2019-03-16T18:52:33.279Z,10.00
2019-03-16T18:55:00.578Z,12.45
2019-03-16T18:57:27.868Z,8.53
2019-03-16T18:59:55.149Z,11.35
2019-03-16T19:02:22.511Z,11.45
2019-03-16T19:04:49.823Z,13.65
2019-03-16T19:07:17.090Z,9.70
2019-03-16T19:09:44.362Z,12.73
2019-03-16T19:12:11.639Z,12.75
2019-03-16T19:14:38.941Z,13.98
2019-03-16T19:17:06.220Z,11.00
2019-03-16T19:19:33.558Z,13.43
2019-03-16T19:22:00.994Z,15.00
2019-03-16T19:24:28.280Z,13.00
2019-03-16T19:26:55.849Z,12.07
2019-03-16T19:29:23.487Z,8.18
2019-03-16T19:31:50.767Z,9.30
2019-03-16T19:34:18.034Z,16.37
2019-03-16T19:36:45.917Z,14.28
2019-03-16T19:39:13.219Z,14.85
2019-03-16T19:41:41.756Z,13.22
2019-03-16T19:44:09.588Z,10.82
2019-03-16T19:46:36.917Z,14.73
2019-03-16T19:49:06.976Z,12.78
2019-03-16T19:51:33.420Z,13.45
2019-03-16T19:54:00.859Z,12.28
2019-03-16T19:56:28.123Z,14.50
2019-03-16T19:59:00.579Z,15.20
2019-03-16T20:01:24.522Z,12.25
2019-03-16T20:03:51.779Z,11.40
2019-03-16T20:06:25.771Z,12.23
2019-03-16T20:08:48.147Z,12.28
2019-03-16T20:11:15.431Z,14.45
2019-03-16T20:13:42.702Z,12.58
2019-03-16T20:16:09.970Z,17.17
2019-03-16T20:18:37.347Z,16.60
2019-03-16T20:21:04.833Z,12.90
2019-03-16T20:23:32.121Z,10.70
2019-03-16T20:25:59.416Z,8.08
2019-03-16T20:28:26.686Z,13.18
2019-03-16T20:30:54.050Z,13.48
2019-03-16T20:33:21.328Z,13.28
2019-03-16T20:35:48.620Z,12.28
2019-03-16T20:38:16.266Z,10.85
2019-03-16T20:40:43.547Z,12.07
2019-03-16T20:43:10.883Z,15.15
2019-03-16T20:45:38.219Z,14.03
2019-03-16T20:48:06.053Z,12.20
2019-03-16T20:50:33.377Z,11.28
2019-03-16T20:53:00.687Z,16.12
2019-03-16T20:55:28.013Z,14.30
2019-03-16T20:57:55.369Z,21.42
2019-03-16T21:00:22.642Z,11.83
2019-03-16T21:02:49.917Z,16.20
2019-03-16T21:05:17.215Z,11.03
2019-03-16T21:07:44.546Z,12.30
2019-03-16T21:10:12.403Z,11.35
2019-03-16T21:12:39.663Z,11.65
2019-03-16T21:15:08.487Z,12.98
2019-03-16T21:17:35.758Z,15.80
2019-03-16T21:20:04.121Z,15.13
2019-03-16T21:22:36.362Z,12.93
2019-03-16T21:25:00.445Z,12.58
2019-03-16T21:27:27.782Z,12.60
2019-03-16T21:29:55.079Z,13.45
2019-03-16T21:32:22.445Z,11.22
2019-03-16T21:34:49.774Z,17.23
2019-03-16T21:37:17.154Z,15.13
2019-03-16T21:39:44.490Z,13.90
2019-03-16T21:42:11.767Z,14.78
2019-03-16T21:44:39.126Z,14.63
2019-03-16T21:47:06.646Z,14.20
2019-03-16T21:49:35.169Z,12.65
2019-03-16T21:52:02.987Z,11.45
2019-03-16T21:54:30.311Z,13.78
2019-03-16T21:56:57.596Z,14.20
2019-03-16T21:59:26.453Z,8.93
2019-03-16T22:01:53.982Z,10.18
2019-03-16T22:04:21.254Z,13.72
2019-03-16T22:06:48.517Z,10.70
2019-03-16T22:09:16.263Z,13.22
2019-03-16T22:11:43.537Z,8.73
2019-03-16T22:14:10.826Z,15.05
2019-03-16T22:16:38.095Z,10.43
2019-03-16T22:19:05.377Z,10.32
2019-03-16T22:21:32.830Z,8.95
2019-03-16T22:24:00.118Z,12.25
2019-03-16T22:26:27.455Z,13.00
2019-03-16T22:28:54.796Z,12.33
2019-03-16T22:31:22.085Z,20.57
2019-03-16T22:33:54.358Z,13.00
2019-03-16T22:36:18.353Z,10.65
2019-03-16T22:38:45.784Z,15.50
2019-03-16T22:41:13.034Z,9.95
2019-03-16T22:43:40.327Z,9.78
2019-03-16T22:46:07.649Z,12.88
2019-03-16T22:48:34.930Z,13.22
2019-03-16T22:51:02.284Z,11.80
2019-03-16T22:53:29.567Z,7.85
2019-03-16T22:55:56.817Z,10.55
2019-03-16T22:58:24.090Z,9.43
2019-03-16T23:00:52.319Z,13.30
2019-03-16T23:03:19.782Z,9.05
2019-03-16T23:05:47.109Z,10.45
2019-03-16T23:08:14.546Z,14.95
2019-03-16T23:10:41.882Z,13.98
2019-03-16T23:13:09.170Z,12.35
2019-03-16T23:15:36.428Z,10.95
2019-03-16T23:18:03.992Z,8.93
2019-03-16T23:20:31.309Z,12.18
2019-03-16T23:22:58.636Z,12.90
2019-03-16T23:25:25.930Z,18.67
2019-03-16T23:27:53.198Z,12.03
2019-03-16T23:30:20.485Z,8.15
2019-03-16T23:32:47.766Z,9.00
2019-03-16T23:35:15.035Z,16.75
2019-03-16T23:37:42.366Z,9.28
2019-03-16T23:40:10.325Z,13.83
2019-03-16T23:42:37.678Z,11.15
2019-03-16T23:45:06.581Z,11.73
2019-03-16T23:47:33.988Z,11.90
2019-03-16T23:50:01.317Z,12.35
2019-03-16T23:52:28.618Z,9.78
2019-03-16T23:54:55.914Z,11.70
2019-03-16T23:57:23.206Z,13.65
2019-03-16T23:59:50.478Z,12.50
